PRG weather

Václav Havel Airport Prague
Prague, Prague (capital city), Czechia

Public forecast

Using degrees Celsius for public forecast. Weather courtesy of forecast.io.

METAR (pilot weather report)

Retrieved 2018/09/23 17:43 UTC (9 minutes ago):

LKPR 231743Z 28012G23KT 230V330 9999 -TSRA SCT025CB 18/16 Q1002 RMK REG QNH 0999

TAF (pilot weather forecast)

Retrieved 2018/09/23 12:12 UTC (6 hours ago):

TAF LKPR 231100Z 2312/2418 20014KT 9999 BKN025 TEMPO 2312/2323 23016G32KT 6000 RA BKN017 PROB30 TEMPO 2312/2318 2000 RA BR BKN004 PROB40 TEMPO 2318/2321 30030G55KT 2000 TSRA SCT012CB BKN015 TEMPO 2323/2418 32016G32KT 6000 -SHRA SCT012TCU